createdAt,value
2022-11-17T00:00:36.446Z,0.00
2022-11-17T00:01:36.519Z,0.00
2022-11-17T00:02:36.531Z,0.00
2022-11-17T00:03:36.911Z,0.00
2022-11-17T00:04:36.490Z,0.00
2022-11-17T00:05:36.512Z,0.00
2022-11-17T00:06:36.452Z,0.00
2022-11-17T00:07:36.433Z,0.00
2022-11-17T00:08:36.369Z,0.00
2022-11-17T00:09:36.402Z,0.00
2022-11-17T00:10:36.348Z,0.00
2022-11-17T00:11:36.434Z,0.00
2022-11-17T00:12:36.349Z,0.00
2022-11-17T00:13:36.959Z,0.00
2022-11-17T00:14:36.336Z,0.00
2022-11-17T00:15:36.340Z,0.00
2022-11-17T00:16:36.374Z,0.00
2022-11-17T00:17:36.301Z,0.00
2022-11-17T00:18:36.335Z,0.00
2022-11-17T00:19:36.289Z,0.00
2022-11-17T00:20:36.249Z,0.00
2022-11-17T00:21:36.259Z,0.00
2022-11-17T00:22:36.323Z,0.00
2022-11-17T00:23:36.438Z,0.00
2022-11-17T00:24:37.182Z,0.00
2022-11-17T00:25:36.198Z,0.00
2022-11-17T00:26:36.187Z,0.00
2022-11-17T00:27:36.198Z,0.00
2022-11-17T00:28:36.177Z,0.00
2022-11-17T00:29:39.165Z,0.00
2022-11-17T00:30:36.171Z,0.00
2022-11-17T00:31:36.153Z,0.00
2022-11-17T00:32:36.121Z,0.00
2022-11-17T00:33:36.508Z,0.00
2022-11-17T00:34:37.710Z,0.00
2022-11-17T00:35:36.148Z,0.00
2022-11-17T00:36:36.072Z,0.00
2022-11-17T00:37:36.112Z,0.00
2022-11-17T00:38:36.053Z,0.00
2022-11-17T00:39:36.072Z,0.00
2022-11-17T00:40:36.061Z,0.00
2022-11-17T00:41:36.163Z,0.00
2022-11-17T00:42:36.028Z,0.00
2022-11-17T00:43:36.432Z,0.00
2022-11-17T00:44:36.009Z,0.00
2022-11-17T00:45:36.016Z,0.00
2022-11-17T00:46:35.996Z,0.00
2022-11-17T00:47:36.002Z,0.00
2022-11-17T00:48:35.993Z,0.00
2022-11-17T00:49:35.965Z,0.00
2022-11-17T00:50:35.936Z,0.00
2022-11-17T00:51:35.966Z,0.00
2022-11-17T00:52:35.915Z,0.00
2022-11-17T00:53:38.037Z,0.00
2022-11-17T00:54:35.912Z,0.00
2022-11-17T00:55:36.060Z,0.00
2022-11-17T00:56:35.874Z,0.00
2022-11-17T00:57:35.865Z,0.00
2022-11-17T00:58:35.876Z,0.00
2022-11-17T00:59:35.863Z,0.00
2022-11-17T01:00:35.814Z,0.00
2022-11-17T01:01:35.864Z,0.00
2022-11-17T01:02:35.841Z,0.00
2022-11-17T01:03:36.140Z,0.00
2022-11-17T01:04:35.817Z,0.00
2022-11-17T01:05:35.833Z,0.00
2022-11-17T01:06:35.826Z,0.00
2022-11-17T01:07:35.862Z,0.00
2022-11-17T01:08:35.762Z,0.00
2022-11-17T01:09:35.806Z,0.00
2022-11-17T01:10:35.730Z,0.00
2022-11-17T01:11:35.757Z,0.00
2022-11-17T01:12:35.784Z,0.00
2022-11-17T01:13:36.068Z,0.00
2022-11-17T01:14:35.727Z,0.00
2022-11-17T01:15:35.689Z,0.00
2022-11-17T01:16:35.676Z,0.00
2022-11-17T01:17:35.706Z,0.00
2022-11-17T01:18:35.636Z,0.00
2022-11-17T01:19:35.621Z,0.00
2022-11-17T01:20:35.677Z,0.00
2022-11-17T01:21:35.956Z,0.00
2022-11-17T01:22:35.614Z,0.00
2022-11-17T01:23:35.837Z,0.00
2022-11-17T01:24:35.634Z,0.00
2022-11-17T01:25:35.571Z,0.00
2022-11-17T01:26:35.573Z,0.00
2022-11-17T01:27:35.586Z,0.00
2022-11-17T01:28:35.590Z,0.00
2022-11-17T01:29:35.518Z,0.00
2022-11-17T01:30:35.545Z,0.00
2022-11-17T01:31:35.592Z,0.00
2022-11-17T01:32:35.505Z,0.00
2022-11-17T01:33:35.743Z,0.00
2022-11-17T01:34:35.461Z,0.00
2022-11-17T01:35:35.473Z,0.00
2022-11-17T01:36:35.542Z,0.00
2022-11-17T01:37:35.472Z,0.00
2022-11-17T01:38:35.477Z,0.00
2022-11-17T01:39:35.468Z,0.00
2022-11-17T01:40:35.423Z,0.00
2022-11-17T01:41:35.409Z,0.00
2022-11-17T01:42:35.382Z,0.00
2022-11-17T01:43:35.700Z,0.00
2022-11-17T01:44:35.381Z,0.00
2022-11-17T01:45:35.389Z,0.00
2022-11-17T01:46:35.363Z,0.00
2022-11-17T01:47:35.396Z,0.00
2022-11-17T01:48:35.300Z,0.00
2022-11-17T01:49:35.348Z,0.00
2022-11-17T01:50:35.361Z,0.00
2022-11-17T01:51:35.369Z,0.00
2022-11-17T01:52:35.318Z,0.00
2022-11-17T01:53:35.608Z,0.00
2022-11-17T01:54:35.288Z,0.00
2022-11-17T01:55:35.599Z,0.00
2022-11-17T01:56:35.226Z,0.00
2022-11-17T01:57:35.263Z,0.00
2022-11-17T01:58:35.212Z,0.00
2022-11-17T01:59:35.209Z,0.00
2022-11-17T02:00:35.224Z,0.00
2022-11-17T02:01:35.298Z,0.00
2022-11-17T02:02:35.177Z,0.00
2022-11-17T02:03:35.562Z,0.00
2022-11-17T02:04:35.197Z,0.00
2022-11-17T02:05:35.169Z,0.00
2022-11-17T02:06:35.171Z,0.00
2022-11-17T02:07:35.213Z,0.00
2022-11-17T02:08:35.118Z,0.00
2022-11-17T02:09:35.169Z,0.00
2022-11-17T02:10:35.124Z,0.00
2022-11-17T02:11:35.095Z,0.00
2022-11-17T02:12:35.114Z,0.00
2022-11-17T02:13:35.208Z,0.00
2022-11-17T02:14:35.072Z,0.00
2022-11-17T02:15:35.124Z,0.00
2022-11-17T02:16:35.034Z,0.00
2022-11-17T02:17:35.042Z,0.00
2022-11-17T02:18:35.037Z,0.00
2022-11-17T02:19:34.982Z,0.00
2022-11-17T02:20:35.055Z,0.00
2022-11-17T02:21:34.960Z,0.00
2022-11-17T02:22:34.989Z,0.00
2022-11-17T02:23:35.264Z,0.00
2022-11-17T02:24:34.940Z,0.00
2022-11-17T02:25:34.937Z,0.00
2022-11-17T02:26:34.910Z,0.00
2022-11-17T02:27:34.897Z,0.00
2022-11-17T02:28:35.142Z,0.00
2022-11-17T02:29:34.974Z,0.00
2022-11-17T02:30:34.917Z,0.00
2022-11-17T02:31:34.905Z,0.00
2022-11-17T02:32:34.865Z,0.00
2022-11-17T02:33:35.169Z,0.00
2022-11-17T02:34:34.860Z,0.00
2022-11-17T02:35:34.845Z,0.00
2022-11-17T02:36:34.810Z,0.00
2022-11-17T02:37:34.805Z,0.00
2022-11-17T02:38:34.867Z,0.00
2022-11-17T02:39:34.802Z,0.00
2022-11-17T02:40:34.781Z,0.00
2022-11-17T02:41:34.761Z,0.00
2022-11-17T02:42:34.769Z,0.00
2022-11-17T02:43:35.122Z,0.00
2022-11-17T02:44:34.720Z,0.00
2022-11-17T02:45:34.932Z,0.00
2022-11-17T02:46:34.696Z,0.00
2022-11-17T02:47:34.707Z,0.00
2022-11-17T02:48:34.715Z,0.00
2022-11-17T02:49:34.678Z,0.00
2022-11-17T02:50:34.651Z,0.00
2022-11-17T02:51:34.656Z,0.00
2022-11-17T02:52:34.639Z,0.00
2022-11-17T02:53:34.970Z,0.00
2022-11-17T02:54:34.643Z,0.00
2022-11-17T02:55:34.612Z,0.00
2022-11-17T02:56:34.643Z,0.00
2022-11-17T02:57:34.601Z,0.00
2022-11-17T02:58:34.638Z,0.00
2022-11-17T02:59:34.617Z,0.00
2022-11-17T03:00:34.625Z,0.00
2022-11-17T03:01:34.699Z,0.00
2022-11-17T03:02:34.583Z,0.00
2022-11-17T03:03:35.073Z,0.00
2022-11-17T03:04:34.534Z,0.00
2022-11-17T03:05:34.768Z,0.00
2022-11-17T03:06:34.664Z,0.00
2022-11-17T03:07:34.989Z,0.00
2022-11-17T03:08:34.645Z,0.00
2022-11-17T03:09:34.460Z,0.00
2022-11-17T03:10:34.548Z,0.00
2022-11-17T03:11:34.445Z,0.00
2022-11-17T03:12:34.610Z,0.00
2022-11-17T03:13:34.714Z,0.00
2022-11-17T03:14:34.436Z,0.00
2022-11-17T03:15:35.305Z,0.00
2022-11-17T03:16:34.441Z,0.00
2022-11-17T03:17:34.405Z,0.00
2022-11-17T03:18:34.390Z,0.00
2022-11-17T03:19:34.364Z,0.00
2022-11-17T03:20:34.422Z,0.00
2022-11-17T03:21:34.335Z,0.00
2022-11-17T03:22:34.393Z,0.00
2022-11-17T03:23:34.839Z,0.00
2022-11-17T03:24:34.326Z,0.00
2022-11-17T03:25:34.318Z,0.00
2022-11-17T03:26:34.298Z,0.00
2022-11-17T03:27:34.349Z,0.00
2022-11-17T03:28:34.257Z,0.00
2022-11-17T03:29:34.253Z,0.00
2022-11-17T03:30:37.468Z,0.00
2022-11-17T03:31:34.237Z,0.00
2022-11-17T03:32:34.237Z,0.00
2022-11-17T03:33:34.669Z,0.00
2022-11-17T03:34:34.171Z,0.00
2022-11-17T03:35:34.245Z,0.00
2022-11-17T03:36:34.189Z,0.00
2022-11-17T03:37:34.215Z,0.00
2022-11-17T03:38:34.181Z,0.00
2022-11-17T03:39:34.187Z,0.00
2022-11-17T03:40:34.207Z,0.00
2022-11-17T03:41:34.132Z,0.00
2022-11-17T03:42:34.210Z,0.00
2022-11-17T03:43:34.520Z,0.00
2022-11-17T03:44:34.107Z,0.00
2022-11-17T03:45:34.118Z,0.00
2022-11-17T03:46:34.112Z,0.00
2022-11-17T03:47:34.109Z,0.00
2022-11-17T03:48:34.113Z,0.00
2022-11-17T03:49:34.075Z,0.00
2022-11-17T03:50:34.056Z,0.00
2022-11-17T03:51:34.070Z,0.00
2022-11-17T03:52:34.042Z,0.00
2022-11-17T03:53:34.338Z,0.00
2022-11-17T03:54:34.019Z,0.00
2022-11-17T03:55:33.974Z,0.00
2022-11-17T03:56:34.011Z,0.00
2022-11-17T03:57:34.009Z,0.00
2022-11-17T03:58:33.993Z,0.00
2022-11-17T03:59:33.932Z,0.00
2022-11-17T04:00:33.950Z,0.00
2022-11-17T04:01:33.981Z,0.00
2022-11-17T04:02:33.947Z,0.00
2022-11-17T04:03:34.397Z,0.00
2022-11-17T04:04:33.932Z,0.00
2022-11-17T04:05:33.873Z,0.00
2022-11-17T04:06:33.941Z,0.00
2022-11-17T04:07:33.902Z,0.00
2022-11-17T04:08:33.867Z,0.00
2022-11-17T04:09:33.873Z,0.00
2022-11-17T04:10:33.871Z,0.00
2022-11-17T04:11:33.804Z,0.00
2022-11-17T04:12:33.854Z,0.00
2022-11-17T04:13:34.136Z,0.00
2022-11-17T04:14:33.832Z,0.00
2022-11-17T04:15:33.806Z,0.00
2022-11-17T04:16:33.843Z,0.00
2022-11-17T04:17:33.754Z,0.00
2022-11-17T04:18:33.766Z,0.00
2022-11-17T04:19:33.768Z,0.00
2022-11-17T04:20:33.776Z,0.00
2022-11-17T04:21:33.719Z,0.00
2022-11-17T04:22:33.737Z,0.00
2022-11-17T04:23:34.045Z,0.00
2022-11-17T04:24:33.741Z,0.00
2022-11-17T04:25:33.730Z,0.00
2022-11-17T04:26:33.670Z,0.00
2022-11-17T04:27:33.655Z,0.00
2022-11-17T04:28:33.636Z,0.00
2022-11-17T04:29:33.691Z,0.00
2022-11-17T04:30:33.665Z,0.00
2022-11-17T04:31:33.693Z,0.00
2022-11-17T04:32:33.618Z,0.00
2022-11-17T04:33:34.015Z,0.00
2022-11-17T04:34:33.608Z,0.00
2022-11-17T04:35:33.629Z,0.00
2022-11-17T04:36:33.495Z,0.00
2022-11-17T04:37:33.542Z,0.00
2022-11-17T04:38:33.567Z,0.00
2022-11-17T04:39:33.541Z,0.00
2022-11-17T04:40:33.526Z,0.00
2022-11-17T04:41:33.545Z,0.00
2022-11-17T04:42:34.311Z,0.00
2022-11-17T04:43:33.972Z,0.00
2022-11-17T04:44:33.519Z,0.00
2022-11-17T04:45:33.465Z,0.00
2022-11-17T04:46:33.479Z,0.00
2022-11-17T04:47:33.431Z,0.00
2022-11-17T04:48:33.446Z,0.00
2022-11-17T04:49:33.452Z,0.00
2022-11-17T04:50:33.428Z,0.00
2022-11-17T04:51:33.420Z,0.00
2022-11-17T04:52:33.394Z,0.00
2022-11-17T04:53:33.781Z,0.00
2022-11-17T04:54:33.393Z,0.00
2022-11-17T04:55:33.385Z,0.00
2022-11-17T04:56:33.391Z,0.00
2022-11-17T04:57:33.369Z,0.00
2022-11-17T04:58:33.446Z,0.00
2022-11-17T04:59:33.383Z,0.00
2022-11-17T05:00:33.314Z,0.00
2022-11-17T05:01:33.294Z,0.00
2022-11-17T05:02:33.395Z,0.00
2022-11-17T05:03:33.535Z,0.00
2022-11-17T05:04:33.318Z,0.00
2022-11-17T05:05:34.298Z,0.00
2022-11-17T05:06:33.366Z,0.00
2022-11-17T05:07:33.374Z,0.00
2022-11-17T05:08:33.270Z,0.00
2022-11-17T05:09:33.240Z,0.00
2022-11-17T05:10:33.264Z,0.00
2022-11-17T05:11:33.215Z,0.00
2022-11-17T05:12:33.174Z,0.00
2022-11-17T05:13:33.538Z,0.00
2022-11-17T05:14:33.189Z,0.00
2022-11-17T05:15:33.168Z,0.00
2022-11-17T05:16:33.138Z,0.00
2022-11-17T05:17:33.141Z,0.00
2022-11-17T05:18:33.092Z,0.00
2022-11-17T05:19:33.156Z,0.00
2022-11-17T05:20:33.119Z,0.00
2022-11-17T05:21:33.070Z,0.00
2022-11-17T05:22:33.068Z,0.00
2022-11-17T05:23:33.622Z,0.00
2022-11-17T05:24:33.091Z,0.00
2022-11-17T05:25:33.119Z,0.00
2022-11-17T05:26:33.052Z,0.00
2022-11-17T05:27:33.047Z,0.00
2022-11-17T05:28:33.066Z,0.00
2022-11-17T05:29:33.075Z,0.00
2022-11-17T05:30:33.000Z,0.00
2022-11-17T05:31:32.987Z,0.00
2022-11-17T05:32:33.034Z,0.00
2022-11-17T05:33:37.601Z,0.00
2022-11-17T05:34:33.149Z,0.00
2022-11-17T05:35:32.963Z,0.00
2022-11-17T05:36:32.877Z,0.00
2022-11-17T05:37:32.935Z,0.00
2022-11-17T05:38:32.900Z,0.00
2022-11-17T05:39:32.853Z,0.00
2022-11-17T05:40:32.917Z,0.00
2022-11-17T05:41:32.898Z,0.00
2022-11-17T05:42:32.894Z,0.00
2022-11-17T05:43:33.237Z,0.00
2022-11-17T05:44:33.047Z,0.00
2022-11-17T05:45:32.831Z,0.00
2022-11-17T05:47:57.794Z,0.00
2022-11-17T05:48:58.322Z,0.00
2022-11-17T05:49:57.260Z,0.00
2022-11-17T05:51:09.990Z,0.00
2022-11-17T05:51:58.116Z,0.00
2022-11-17T05:52:58.049Z,0.00
2022-11-17T05:53:58.079Z,0.00
2022-11-17T05:54:58.041Z,0.00
2022-11-17T05:55:58.088Z,0.00
2022-11-17T05:56:58.046Z,0.00
2022-11-17T05:57:58.029Z,0.00
2022-11-17T05:58:58.018Z,0.00
2022-11-17T05:59:58.110Z,0.00
2022-11-17T06:00:57.945Z,0.00
2022-11-17T06:01:57.971Z,0.00
2022-11-17T06:02:57.994Z,0.00
2022-11-17T06:03:58.075Z,0.00
2022-11-17T06:04:57.946Z,0.00
2022-11-17T06:05:57.945Z,0.00
2022-11-17T06:06:57.938Z,0.00
2022-11-17T06:07:57.982Z,0.00
2022-11-17T06:08:58.008Z,0.00
2022-11-17T06:09:58.063Z,0.00
2022-11-17T06:10:57.932Z,0.00
2022-11-17T06:12:02.606Z,0.00
2022-11-17T06:12:58.075Z,0.00
2022-11-17T06:13:58.109Z,0.00
2022-11-17T06:14:57.993Z,0.00
2022-11-17T06:15:58.023Z,0.00
2022-11-17T06:16:57.798Z,0.00
2022-11-17T06:17:57.876Z,0.00
2022-11-17T06:18:57.802Z,0.00
2022-11-17T06:19:57.791Z,0.00
2022-11-17T06:20:57.815Z,0.00
2022-11-17T06:22:11.793Z,0.00
2022-11-17T06:22:57.862Z,0.00
2022-11-17T06:23:57.846Z,0.00
2022-11-17T06:24:57.897Z,0.00
2022-11-17T06:25:57.905Z,0.00
2022-11-17T06:26:57.903Z,0.00
2022-11-17T06:27:57.825Z,0.00
2022-11-17T06:28:57.792Z,0.00
2022-11-17T06:29:57.712Z,0.00
2022-11-17T06:30:57.718Z,0.00
2022-11-17T06:31:57.741Z,0.00
2022-11-17T06:32:57.666Z,0.00
2022-11-17T06:33:57.674Z,0.00
2022-11-17T06:34:57.713Z,0.00
2022-11-17T06:35:57.726Z,0.00
2022-11-17T06:36:57.737Z,0.00
2022-11-17T06:37:57.990Z,0.00
2022-11-17T06:38:57.872Z,0.00
2022-11-17T06:39:57.643Z,0.00
2022-11-17T06:40:58.045Z,0.00
2022-11-17T06:41:57.559Z,0.00
2022-11-17T06:42:57.748Z,0.00
2022-11-17T06:43:57.563Z,0.00
2022-11-17T06:44:57.462Z,0.00
2022-11-17T06:45:57.477Z,0.00
2022-11-17T06:46:57.617Z,0.00
2022-11-17T06:47:57.461Z,0.00
2022-11-17T06:48:57.469Z,0.00
2022-11-17T06:49:57.490Z,0.00
2022-11-17T06:50:57.531Z,0.00
2022-11-17T06:51:57.528Z,0.00
2022-11-17T06:52:57.492Z,0.00
2022-11-17T06:53:57.369Z,0.00
2022-11-17T06:54:57.370Z,0.00
2022-11-17T06:55:57.601Z,0.00
2022-11-17T06:56:57.365Z,0.00
2022-11-17T06:57:57.403Z,0.00
2022-11-17T06:58:57.404Z,0.00
2022-11-17T06:59:57.364Z,0.00
2022-11-17T07:00:57.752Z,0.00
2022-11-17T07:01:57.329Z,0.00
2022-11-17T07:02:57.586Z,0.00
2022-11-17T07:03:57.978Z,0.00
2022-11-17T07:04:57.328Z,0.00
2022-11-17T07:05:57.253Z,0.00
2022-11-17T07:06:57.472Z,0.00
2022-11-17T07:07:57.342Z,0.00
2022-11-17T07:08:57.266Z,0.00
2022-11-17T07:09:57.205Z,0.00
2022-11-17T07:10:57.211Z,0.00
2022-11-17T07:11:57.248Z,0.00
2022-11-17T07:12:57.243Z,0.00
2022-11-17T07:13:57.174Z,0.00
2022-11-17T07:14:57.170Z,0.00
2022-11-17T07:15:57.341Z,5.62
2022-11-17T07:16:57.245Z,5.62
2022-11-17T07:17:57.227Z,5.62
2022-11-17T07:18:57.233Z,5.62
2022-11-17T07:19:57.269Z,5.62
2022-11-17T07:20:57.584Z,5.62
2022-11-17T07:21:57.251Z,5.62
2022-11-17T07:22:57.327Z,5.62
2022-11-17T07:23:57.224Z,5.62
2022-11-17T07:24:57.186Z,5.62
2022-11-17T07:25:57.281Z,5.62
2022-11-17T07:26:57.351Z,5.62
2022-11-17T07:27:57.141Z,5.62
2022-11-17T07:28:57.049Z,5.62
2022-11-17T07:29:57.058Z,5.62
2022-11-17T07:30:57.257Z,5.62
2022-11-17T07:31:57.090Z,5.62
2022-11-17T07:32:57.125Z,5.62
2022-11-17T07:33:57.001Z,5.62
2022-11-17T07:34:57.140Z,5.62
2022-11-17T07:35:57.037Z,11.25
2022-11-17T07:36:56.915Z,11.25
2022-11-17T07:37:56.913Z,11.25
2022-11-17T07:38:56.920Z,11.25
2022-11-17T07:39:56.923Z,11.25
2022-11-17T07:40:57.093Z,11.25
2022-11-17T07:41:56.893Z,11.25
2022-11-17T07:42:57.474Z,11.25
2022-11-17T07:43:56.934Z,11.25
2022-11-17T07:44:57.099Z,11.25
2022-11-17T07:45:57.229Z,11.25
2022-11-17T07:46:56.840Z,11.25
2022-11-17T07:47:56.845Z,16.88
2022-11-17T07:48:56.801Z,16.88
2022-11-17T07:49:56.890Z,22.50
2022-11-17T07:51:00.688Z,16.88
2022-11-17T07:51:57.093Z,16.88
2022-11-17T07:52:56.800Z,16.88
2022-11-17T07:53:56.742Z,16.88
2022-11-17T07:54:56.730Z,11.25
2022-11-17T07:55:56.803Z,11.25
2022-11-17T07:56:56.793Z,11.25
2022-11-17T07:57:56.747Z,11.25
2022-11-17T07:58:56.744Z,11.25
2022-11-17T07:59:56.794Z,11.25
2022-11-17T08:00:57.364Z,11.25
2022-11-17T08:01:56.684Z,11.25
2022-11-17T08:02:56.720Z,11.25
2022-11-17T08:03:56.831Z,11.25
2022-11-17T08:04:56.705Z,5.62
2022-11-17T08:05:56.644Z,5.62
2022-11-17T08:06:56.683Z,5.62
2022-11-17T08:07:56.707Z,5.62
2022-11-17T08:08:56.613Z,5.62
2022-11-17T08:09:56.735Z,11.25
2022-11-17T08:10:56.602Z,11.25
2022-11-17T08:11:56.733Z,11.25
2022-11-17T08:12:56.845Z,11.25
2022-11-17T08:13:56.534Z,5.62
2022-11-17T08:14:56.777Z,5.62
2022-11-17T08:15:56.596Z,5.62
2022-11-17T08:16:56.530Z,5.62
2022-11-17T08:17:56.601Z,5.62
2022-11-17T08:18:56.676Z,5.62
2022-11-17T08:19:56.693Z,5.62
2022-11-17T08:20:56.546Z,5.62
2022-11-17T08:21:56.715Z,5.62
2022-11-17T08:22:56.609Z,5.62
2022-11-17T08:23:56.460Z,5.62
2022-11-17T08:24:56.776Z,5.62
2022-11-17T08:25:56.424Z,5.62
2022-11-17T08:26:56.633Z,5.62
2022-11-17T08:27:56.513Z,5.62
2022-11-17T08:28:58.830Z,11.25
2022-11-17T08:29:56.608Z,11.25
2022-11-17T08:30:56.677Z,5.62
2022-11-17T08:31:56.424Z,5.62
2022-11-17T08:32:56.396Z,5.62
2022-11-17T08:33:56.352Z,5.62
2022-11-17T08:34:56.337Z,5.62
2022-11-17T08:35:56.384Z,5.62
2022-11-17T08:36:56.368Z,5.62
2022-11-17T08:37:56.427Z,5.62
2022-11-17T08:38:56.280Z,5.62
2022-11-17T08:39:56.342Z,5.62
2022-11-17T08:40:56.387Z,5.62
2022-11-17T08:41:56.734Z,5.62
2022-11-17T08:43:00.903Z,16.88
2022-11-17T08:43:56.330Z,5.62
2022-11-17T08:44:56.543Z,5.62
2022-11-17T08:45:56.272Z,5.62
2022-11-17T08:46:56.241Z,5.62
2022-11-17T08:47:56.237Z,5.62
2022-11-17T08:48:57.210Z,5.62
2022-11-17T08:49:56.266Z,5.62
2022-11-17T08:50:56.233Z,11.25
2022-11-17T08:51:56.164Z,11.25
2022-11-17T08:52:56.150Z,11.25
2022-11-17T08:53:56.204Z,11.25
2022-11-17T08:54:56.207Z,11.25
2022-11-17T08:55:56.159Z,11.25
2022-11-17T08:56:56.150Z,11.25
2022-11-17T08:57:56.130Z,11.25
2022-11-17T08:58:56.163Z,11.25
2022-11-17T08:59:56.120Z,11.25
2022-11-17T09:01:00.967Z,11.25
2022-11-17T09:01:56.129Z,11.25
2022-11-17T09:02:56.082Z,16.88
2022-11-17T09:03:56.119Z,11.25
2022-11-17T09:04:56.062Z,11.25
2022-11-17T09:05:56.040Z,11.25
2022-11-17T09:06:56.195Z,5.62
2022-11-17T09:08:02.463Z,5.62
2022-11-17T09:08:56.561Z,5.62
2022-11-17T09:09:55.998Z,5.62
2022-11-17T09:10:55.981Z,11.25
2022-11-17T09:11:55.951Z,11.25
2022-11-17T09:12:56.020Z,11.25
2022-11-17T09:13:55.964Z,16.88
2022-11-17T09:14:55.941Z,33.75
2022-11-17T09:15:55.964Z,22.50
2022-11-17T09:16:55.982Z,22.50
2022-11-17T09:17:55.919Z,22.50
2022-11-17T09:18:55.967Z,22.50
2022-11-17T09:19:55.874Z,22.50
2022-11-17T09:20:55.912Z,28.12
2022-11-17T09:21:55.881Z,33.75
2022-11-17T09:22:55.836Z,28.12
2022-11-17T09:23:55.935Z,33.75
2022-11-17T09:24:55.803Z,28.12
2022-11-17T09:25:55.849Z,22.50
2022-11-17T09:26:55.794Z,16.88
2022-11-17T09:27:55.852Z,16.88
2022-11-17T09:28:55.810Z,16.88
2022-11-17T09:30:08.670Z,22.50
2022-11-17T09:30:55.873Z,16.88
2022-11-17T09:31:56.487Z,16.88
2022-11-17T09:32:58.141Z,16.88
2022-11-17T09:33:59.404Z,16.88
2022-11-17T09:34:55.894Z,22.50
2022-11-17T09:35:55.931Z,22.50
2022-11-17T09:36:55.745Z,22.50
2022-11-17T09:37:56.645Z,28.12
2022-11-17T09:39:32.453Z,28.12
2022-11-17T09:39:58.358Z,28.12
2022-11-17T09:40:56.100Z,28.12
2022-11-17T09:42:18.624Z,28.12
2022-11-17T09:42:56.933Z,28.12
2022-11-17T09:43:56.243Z,28.12
2022-11-17T09:44:59.266Z,28.12
2022-11-17T09:46:00.742Z,22.50
2022-11-17T09:47:04.742Z,22.50
2022-11-17T09:48:12.456Z,22.50
2022-11-17T09:48:56.279Z,28.12
2022-11-17T09:49:59.183Z,28.12
2022-11-17T09:50:56.455Z,28.12
2022-11-17T09:51:57.395Z,22.50
2022-11-17T09:52:56.920Z,22.50
2022-11-17T09:53:55.560Z,28.12
2022-11-17T09:54:56.333Z,28.12
2022-11-17T09:55:56.622Z,33.75
2022-11-17T09:57:06.225Z,28.12
2022-11-17T09:58:00.420Z,28.12
2022-11-17T09:59:06.657Z,28.12
2022-11-17T09:59:55.460Z,28.12
2022-11-17T10:00:55.514Z,28.12
2022-11-17T10:01:55.625Z,22.50
2022-11-17T10:02:55.433Z,22.50
2022-11-17T10:03:55.393Z,16.88
2022-11-17T10:04:55.420Z,16.88
2022-11-17T10:05:55.422Z,22.50
2022-11-17T10:06:55.373Z,22.50
2022-11-17T10:07:55.445Z,22.50
2022-11-17T10:08:55.384Z,22.50
2022-11-17T10:09:55.430Z,28.12
2022-11-17T10:10:55.421Z,28.12
2022-11-17T10:11:55.360Z,28.12
2022-11-17T10:12:55.339Z,33.75
2022-11-17T10:13:55.645Z,33.75
2022-11-17T10:14:55.282Z,33.75
2022-11-17T10:15:55.303Z,28.12
2022-11-17T10:16:55.349Z,28.12
2022-11-17T10:17:55.336Z,22.50
2022-11-17T10:18:55.300Z,22.50
2022-11-17T10:19:55.390Z,16.88
2022-11-17T10:20:55.237Z,22.50
2022-11-17T10:21:55.289Z,22.50
2022-11-17T10:22:55.268Z,28.12
2022-11-17T10:23:55.216Z,28.12
2022-11-17T10:24:55.195Z,28.12
2022-11-17T10:25:55.307Z,28.12
2022-11-17T10:26:55.206Z,33.75
2022-11-17T10:27:55.190Z,28.12
2022-11-17T10:28:55.163Z,28.12
2022-11-17T10:29:55.133Z,28.12
2022-11-17T10:30:55.131Z,28.12
2022-11-17T10:31:55.114Z,28.12
2022-11-17T10:32:55.184Z,28.12
2022-11-17T10:33:55.161Z,28.12
2022-11-17T10:34:55.245Z,28.12
2022-11-17T10:35:55.112Z,28.12
2022-11-17T10:36:55.075Z,28.12
2022-11-17T10:37:55.089Z,28.12
2022-11-17T10:38:55.094Z,28.12
2022-11-17T10:39:55.087Z,28.12
2022-11-17T10:40:55.063Z,28.12
2022-11-17T10:41:55.006Z,28.12
2022-11-17T10:42:54.982Z,22.50
2022-11-17T10:43:55.072Z,22.50
2022-11-17T10:44:55.030Z,22.50
2022-11-17T10:45:54.987Z,22.50
2022-11-17T10:47:00.551Z,22.50
2022-11-17T10:47:54.955Z,28.12
2022-11-17T10:48:55.031Z,28.12
2022-11-17T10:49:54.945Z,28.12
2022-11-17T10:50:54.908Z,22.50
2022-11-17T10:51:54.909Z,22.50
2022-11-17T10:52:54.896Z,22.50
2022-11-17T10:53:54.941Z,16.88
2022-11-17T10:54:55.054Z,16.88
2022-11-17T10:55:54.862Z,16.88
2022-11-17T10:56:54.927Z,11.25
2022-11-17T10:57:54.907Z,11.25
2022-11-17T10:58:54.837Z,11.25
2022-11-17T10:59:57.152Z,11.25
2022-11-17T11:00:55.098Z,11.25
2022-11-17T11:01:54.821Z,5.62
2022-11-17T11:02:54.782Z,5.62
2022-11-17T11:03:54.785Z,5.62
2022-11-17T11:04:55.528Z,5.62
2022-11-17T11:05:55.539Z,11.25
2022-11-17T11:06:54.890Z,11.25
2022-11-17T11:07:54.890Z,11.25
2022-11-17T11:08:54.738Z,11.25
2022-11-17T11:09:54.772Z,11.25
2022-11-17T11:10:54.703Z,11.25
2022-11-17T11:11:54.718Z,16.88
2022-11-17T11:12:54.679Z,16.88
2022-11-17T11:13:54.690Z,16.88
2022-11-17T11:14:54.649Z,16.88
2022-11-17T11:15:54.904Z,22.50
2022-11-17T11:16:54.720Z,22.50
2022-11-17T11:17:54.674Z,22.50
2022-11-17T11:18:54.643Z,28.12
2022-11-17T11:19:54.687Z,28.12
2022-11-17T11:20:54.650Z,33.75
2022-11-17T11:21:54.648Z,28.12
2022-11-17T11:22:55.254Z,33.75
2022-11-17T11:23:54.708Z,22.50
2022-11-17T11:24:56.918Z,22.50
2022-11-17T11:25:54.597Z,22.50
2022-11-17T11:26:54.598Z,22.50
2022-11-17T11:27:54.635Z,22.50
2022-11-17T11:28:55.055Z,22.50
2022-11-17T11:29:54.508Z,22.50
2022-11-17T11:30:54.515Z,22.50
2022-11-17T11:31:54.509Z,16.88
2022-11-17T11:32:54.490Z,22.50
2022-11-17T11:33:54.554Z,16.88
2022-11-17T11:34:54.530Z,16.88
2022-11-17T11:35:54.447Z,16.88
2022-11-17T11:36:54.453Z,16.88
2022-11-17T11:37:54.470Z,22.50
2022-11-17T11:38:54.531Z,22.50
2022-11-17T11:39:54.508Z,22.50
2022-11-17T11:40:54.518Z,22.50
2022-11-17T11:41:54.439Z,22.50
2022-11-17T11:42:54.461Z,22.50
2022-11-17T11:43:54.430Z,22.50
2022-11-17T11:44:54.392Z,28.12
2022-11-17T11:45:54.460Z,28.12
2022-11-17T11:46:54.388Z,22.50
2022-11-17T11:47:54.415Z,33.75
2022-11-17T11:48:54.564Z,39.38
2022-11-17T11:49:54.486Z,45.00
2022-11-17T11:50:54.449Z,45.00
2022-11-17T11:51:54.591Z,50.62
2022-11-17T11:52:54.335Z,45.00
2022-11-17T11:53:54.333Z,39.38
2022-11-17T11:54:54.305Z,50.62
2022-11-17T11:55:54.285Z,39.38
2022-11-17T11:56:54.255Z,33.75
2022-11-17T11:57:54.219Z,28.12
2022-11-17T11:58:54.273Z,28.12
2022-11-17T11:59:57.180Z,28.12
2022-11-17T12:00:54.276Z,33.75
2022-11-17T12:01:54.227Z,33.75
2022-11-17T12:02:54.239Z,33.75
2022-11-17T12:03:54.268Z,33.75
2022-11-17T12:04:54.207Z,33.75
2022-11-17T12:05:54.179Z,33.75
2022-11-17T12:06:55.074Z,33.75
2022-11-17T12:07:54.127Z,39.38
2022-11-17T12:08:54.339Z,33.75
2022-11-17T12:09:54.136Z,33.75
2022-11-17T12:10:54.108Z,33.75
2022-11-17T12:11:54.094Z,33.75
2022-11-17T12:12:54.084Z,28.12
2022-11-17T12:13:54.549Z,28.12
2022-11-17T12:14:54.049Z,28.12
2022-11-17T12:15:54.061Z,33.75
2022-11-17T12:16:54.071Z,33.75
2022-11-17T12:17:54.099Z,28.12
2022-11-17T12:18:54.024Z,28.12
2022-11-17T12:19:54.022Z,28.12
2022-11-17T12:20:54.031Z,28.12
2022-11-17T12:21:54.003Z,22.50
2022-11-17T12:22:54.033Z,22.50
2022-11-17T12:23:54.012Z,22.50
2022-11-17T12:24:54.005Z,16.88
2022-11-17T12:25:54.545Z,16.88
2022-11-17T12:26:54.182Z,16.88
2022-11-17T12:27:54.054Z,16.88
2022-11-17T12:28:54.152Z,28.12
2022-11-17T12:29:53.879Z,22.50
2022-11-17T12:30:53.931Z,28.12
2022-11-17T12:31:53.886Z,28.12
2022-11-17T12:32:53.862Z,33.75
2022-11-17T12:33:54.141Z,28.12
2022-11-17T12:34:53.868Z,28.12
2022-11-17T12:35:53.850Z,28.12
2022-11-17T12:36:53.968Z,22.50
2022-11-17T12:37:53.899Z,22.50
2022-11-17T12:38:53.880Z,22.50
2022-11-17T12:39:53.933Z,22.50
2022-11-17T12:40:54.086Z,22.50
2022-11-17T12:41:54.919Z,22.50
2022-11-17T12:42:53.779Z,22.50
2022-11-17T12:43:53.940Z,22.50
2022-11-17T12:44:53.875Z,16.88
2022-11-17T12:45:53.784Z,16.88
2022-11-17T12:46:53.785Z,16.88
2022-11-17T12:48:11.511Z,16.88
2022-11-17T12:48:53.883Z,16.88
2022-11-17T12:49:55.007Z,22.50
2022-11-17T12:50:53.801Z,22.50
2022-11-17T12:51:53.682Z,33.75
2022-11-17T12:52:53.723Z,45.00
2022-11-17T12:53:53.748Z,45.00
2022-11-17T12:54:53.767Z,39.38
2022-11-17T12:55:54.247Z,45.00
2022-11-17T12:56:54.103Z,28.12
2022-11-17T12:57:53.663Z,28.12
2022-11-17T12:58:53.883Z,28.12
2022-11-17T12:59:53.649Z,28.12
2022-11-17T13:00:53.674Z,28.12
2022-11-17T13:01:53.646Z,28.12
2022-11-17T13:02:53.672Z,28.12
2022-11-17T13:03:53.600Z,28.12
2022-11-17T13:04:53.588Z,28.12
2022-11-17T13:06:07.085Z,22.50
2022-11-17T13:06:53.643Z,22.50
2022-11-17T13:07:57.825Z,16.88
2022-11-17T13:08:53.597Z,16.88
2022-11-17T13:09:54.139Z,11.25